Time;durP1;ratioP1;P1;durP2;ratioP2;P2;SDS_P1;SDS_P2;PMS_P1;PMS_P2;Temp;Humidity;BMP_temperature;BMP_pressure;BME280_temperature;BME280_humidity;BME280_pressure;Samples;Min_cycle;Max_cycle;Signal;HPM_P1;HPM_P2
2022/07/28 00:01:55;;;;;;;1.92;1.48;;;;;;;;;;4970002;28;20092;-82
2022/07/28 00:04:20;;;;;;;1.77;1.30;;;;;;;;;;4991298;28;20030;-83
2022/07/28 00:06:46;;;;;;;1.83;1.30;;;;;;;;;;4996248;28;20037;-84
2022/07/28 00:09:11;;;;;;;3.08;1.27;;;;;;;;;;5017179;28;20112;-82
2022/07/28 00:11:36;;;;;;;1.75;1.40;;;;;;;;;;5028473;28;20010;-83
2022/07/28 00:14:02;;;;;;;3.13;1.40;;;;;;;;;;5028530;28;20497;-84
2022/07/28 00:16:27;;;;;;;2.65;1.20;;;;;;;;;;5023336;28;20065;-81
2022/07/28 00:18:52;;;;;;;1.27;1.20;;;;;;;;;;5029947;28;20025;-81
2022/07/28 00:21:18;;;;;;;3.58;1.48;;;;;;;;;;5019853;28;20034;-81
2022/07/28 00:23:43;;;;;;;2.05;1.10;;;;;;;;;;5041195;28;20045;-81
2022/07/28 00:26:10;;;;;;;2.95;1.35;;;;;;;;;;5038834;28;20448;-78
2022/07/28 00:28:36;;;;;;;4.68;1.60;;;;;;;;;;5034514;28;20037;-79
2022/07/28 00:31:01;;;;;;;3.03;1.30;;;;;;;;;;5017157;28;20029;-79
2022/07/28 00:33:27;;;;;;;3.72;1.35;;;;;;;;;;5025264;28;20060;-78
2022/07/28 00:35:52;;;;;;;1.63;1.17;;;;;;;;;;5023495;28;20020;-79
2022/07/28 00:38:17;;;;;;;3.35;1.35;;;;;;;;;;5037195;28;20181;-79
2022/07/28 00:43:27;;;;;;;1.88;1.50;;;;;;;;;;5033388;28;20033;-80
2022/07/28 00:45:52;;;;;;;2.58;1.38;;;;;;;;;;5022300;28;20033;-78
2022/07/28 00:48:18;;;;;;;5.75;1.63;;;;;;;;;;5019419;28;20021;-79
2022/07/28 00:50:44;;;;;;;2.33;1.30;;;;;;;;;;5018176;28;20037;-79
2022/07/28 00:53:09;;;;;;;1.90;1.00;;;;;;;;;;5037823;28;20013;-80
2022/07/28 00:55:37;;;;;;;3.38;1.40;;;;;;;;;;5026528;28;20025;-79
2022/07/28 00:58:03;;;;;;;1.90;1.30;;;;;;;;;;5032168;28;20491;-79
2022/07/28 01:00:29;;;;;;;5.90;1.65;;;;;;;;;;5027532;28;20046;-79
2022/07/28 01:02:54;;;;;;;8.68;1.40;;;;;;;;;;5047890;28;20032;-79
2022/07/28 01:05:20;;;;;;;2.20;1.20;;;;;;;;;;5053439;28;20260;-79
2022/07/28 01:08:09;;;;;;;3.63;1.35;;;;;;;;;;5029238;28;20010;-79
2022/07/28 01:10:34;;;;;;;4.47;1.40;;;;;;;;;;5031212;28;20046;-79
2022/07/28 01:13:43;;;;;;;4.32;1.40;;;;;;;;;;5001723;28;20069;-80
2022/07/28 01:16:08;;;;;;;6.10;1.35;;;;;;;;;;5018987;28;20150;-80
2022/07/28 01:18:54;;;;;;;3.30;1.30;;;;;;;;;;5024205;28;20035;-80
2022/07/28 01:21:25;;;;;;;1.70;1.10;;;;;;;;;;5042953;28;20108;-80
2022/07/28 01:24:09;;;;;;;6.65;1.60;;;;;;;;;;5035791;28;20026;-80
2022/07/28 01:26:54;;;;;;;3.15;1.20;;;;;;;;;;5019149;28;20033;-80
2022/07/28 01:29:44;;;;;;;5.20;1.35;;;;;;;;;;5039314;28;20029;-80
2022/07/28 01:32:22;;;;;;;1.85;1.10;;;;;;;;;;5037025;28;20029;-80
2022/07/28 01:35:04;;;;;;;4.82;1.23;;;;;;;;;;5043181;28;20102;-80
2022/07/28 01:37:31;;;;;;;3.33;1.42;;;;;;;;;;5024554;28;20010;-80
2022/07/28 01:40:01;;;;;;;2.28;1.17;;;;;;;;;;5047789;28;20044;-80
2022/07/28 01:42:32;;;;;;;1.90;1.17;;;;;;;;;;5032206;28;20025;-80
2022/07/28 01:44:59;;;;;;;1.67;1.20;;;;;;;;;;5038175;28;20038;-79
2022/07/28 01:47:30;;;;;;;1.15;0.98;;;;;;;;;;5013083;28;20029;-79
2022/07/28 01:50:00;;;;;;;2.28;1.35;;;;;;;;;;5026217;28;20039;-79
2022/07/28 01:52:27;;;;;;;2.50;0.95;;;;;;;;;;5044479;28;20034;-79
2022/07/28 01:54:55;;;;;;;3.28;1.30;;;;;;;;;;5032199;28;20033;-80
2022/07/28 01:57:22;;;;;;;1.73;1.20;;;;;;;;;;5041283;28;20044;-79
2022/07/28 01:59:49;;;;;;;5.80;1.52;;;;;;;;;;5022548;28;20510;-80
2022/07/28 02:02:17;;;;;;;3.22;1.20;;;;;;;;;;5017016;28;20155;-80
2022/07/28 02:04:46;;;;;;;1.58;1.10;;;;;;;;;;5018819;28;20036;-80
2022/07/28 02:07:12;;;;;;;8.45;1.35;;;;;;;;;;5023510;28;20105;-80
2022/07/28 02:09:39;;;;;;;3.00;1.27;;;;;;;;;;5017329;28;20122;-80
2022/07/28 02:12:06;;;;;;;1.77;1.00;;;;;;;;;;5018332;28;20021;-79
2022/07/28 02:14:35;;;;;;;5.90;1.90;;;;;;;;;;5022040;28;20106;-79
2022/07/28 02:17:06;;;;;;;4.05;1.50;;;;;;;;;;5041417;28;20513;-80
2022/07/28 02:19:34;;;;;;;1.92;1.50;;;;;;;;;;5023876;28;20040;-79
2022/07/28 02:22:02;;;;;;;5.20;1.30;;;;;;;;;;5030947;28;20033;-80
2022/07/28 02:24:28;;;;;;;7.53;1.63;;;;;;;;;;5033429;28;20108;-80
2022/07/28 02:26:59;;;;;;;4.05;1.50;;;;;;;;;;5039789;28;20064;-80
2022/07/28 02:29:27;;;;;;;7.60;1.70;;;;;;;;;;5026323;28;20039;-80
2022/07/28 02:32:23;;;;;;;5.88;1.60;;;;;;;;;;5026943;28;20025;-79
2022/07/28 02:34:50;;;;;;;3.30;1.50;;;;;;;;;;5020281;28;20029;-80
2022/07/28 02:37:17;;;;;;;1.25;1.13;;;;;;;;;;5033112;28;20025;-80
2022/07/28 02:39:52;;;;;;;4.00;1.13;;;;;;;;;;5041517;28;20040;-80
2022/07/28 02:42:27;;;;;;;4.72;1.30;;;;;;;;;;5021676;28;20030;-79
2022/07/28 02:44:57;;;;;;;3.30;1.35;;;;;;;;;;5038097;28;20029;-80
2022/07/28 02:47:25;;;;;;;7.95;1.60;;;;;;;;;;5030246;28;20160;-80
2022/07/28 02:49:52;;;;;;;3.03;1.30;;;;;;;;;;5024733;28;20038;-80
2022/07/28 02:52:21;;;;;;;3.35;1.05;;;;;;;;;;5041703;28;20056;-80
2022/07/28 02:54:48;;;;;;;2.13;1.08;;;;;;;;;;5041143;28;20025;-79
2022/07/28 02:57:14;;;;;;;2.33;1.20;;;;;;;;;;5019947;28;20029;-80
2022/07/28 02:59:41;;;;;;;2.17;1.27;;;;;;;;;;5037887;28;20052;-79
2022/07/28 03:02:07;;;;;;;2.83;1.10;;;;;;;;;;5026071;28;20047;-80
2022/07/28 03:07:18;;;;;;;0.95;0.88;;;;;;;;;;5029894;28;20044;-80
2022/07/28 03:09:45;;;;;;;7.03;1.13;;;;;;;;;;5023438;28;20030;-80
2022/07/28 03:12:11;;;;;;;3.85;1.30;;;;;;;;;;5031423;28;20436;-80
2022/07/28 03:14:38;;;;;;;4.10;1.30;;;;;;;;;;5032827;28;20456;-79
2022/07/28 03:17:03;;;;;;;1.65;1.00;;;;;;;;;;5027011;28;20149;-79
2022/07/28 03:19:29;;;;;;;1.20;1.10;;;;;;;;;;5033154;28;20447;-79
2022/07/28 03:21:54;;;;;;;3.63;1.30;;;;;;;;;;5032627;28;20033;-79
2022/07/28 03:24:23;;;;;;;2.83;1.42;;;;;;;;;;5043158;28;20072;-79
2022/07/28 03:27:20;;;;;;;2.45;1.35;;;;;;;;;;5022936;28;20341;-79
2022/07/28 03:29:52;;;;;;;3.70;1.27;;;;;;;;;;5021890;28;20042;-79
2022/07/28 03:32:20;;;;;;;1.50;1.30;;;;;;;;;;5021642;28;20092;-79
2022/07/28 03:34:47;;;;;;;7.22;1.73;;;;;;;;;;5026658;28;20076;-79
2022/07/28 03:37:17;;;;;;;6.13;1.23;;;;;;;;;;5049173;28;20021;-79
2022/07/28 03:39:46;;;;;;;2.67;1.50;;;;;;;;;;5053247;28;20060;-78
2022/07/28 03:42:15;;;;;;;3.15;1.08;;;;;;;;;;5036957;28;20059;-80
2022/07/28 03:44:41;;;;;;;2.53;1.50;;;;;;;;;;5036058;28;20025;-79
2022/07/28 03:47:06;;;;;;;2.80;1.65;;;;;;;;;;5031198;28;20033;-79
2022/07/28 03:49:32;;;;;;;6.00;1.67;;;;;;;;;;5025913;28;20030;-79
2022/07/28 03:51:57;;;;;;;8.55;1.60;;;;;;;;;;5043835;28;20061;-79
2022/07/28 03:54:23;;;;;;;1.50;1.40;;;;;;;;;;5043992;28;20042;-79
2022/07/28 03:56:49;;;;;;;1.20;1.10;;;;;;;;;;5029170;28;20053;-80
2022/07/28 03:59:14;;;;;;;3.25;1.48;;;;;;;;;;5039221;28;20100;-81
2022/07/28 04:01:40;;;;;;;1.33;1.20;;;;;;;;;;5009915;28;20395;-81
2022/07/28 04:04:05;;;;;;;1.40;1.30;;;;;;;;;;5019265;28;20030;-80
2022/07/28 04:06:30;;;;;;;5.93;1.30;;;;;;;;;;5010688;28;20037;-81
2022/07/28 04:08:56;;;;;;;4.82;1.45;;;;;;;;;;5017809;28;20030;-80
2022/07/28 04:11:22;;;;;;;1.80;1.30;;;;;;;;;;5005339;28;20026;-81
2022/07/28 04:13:47;;;;;;;2.97;1.30;;;;;;;;;;5041451;28;20028;-80
2022/07/28 04:16:12;;;;;;;3.30;1.45;;;;;;;;;;5023191;28;20072;-81
2022/07/28 04:18:38;;;;;;;2.85;1.40;;;;;;;;;;5020676;28;20035;-80
2022/07/28 04:21:03;;;;;;;2.25;1.48;;;;;;;;;;5013361;28;20460;-80
2022/07/28 04:23:29;;;;;;;1.45;1.35;;;;;;;;;;5007860;28;20392;-80
2022/07/28 04:25:55;;;;;;;4.72;1.30;;;;;;;;;;5019861;28;20065;-80
2022/07/28 04:28:20;;;;;;;5.97;3.15;;;;;;;;;;5021277;28;20036;-79
2022/07/28 04:30:45;;;;;;;3.80;1.85;;;;;;;;;;5034572;28;20037;-79
2022/07/28 04:33:11;;;;;;;4.70;1.45;;;;;;;;;;5043522;28;20395;-79
2022/07/28 04:35:37;;;;;;;2.83;1.60;;;;;;;;;;5013767;28;20030;-80
2022/07/28 04:38:02;;;;;;;6.07;1.52;;;;;;;;;;5020458;28;20042;-80
2022/07/28 04:40:27;;;;;;;3.83;1.60;;;;;;;;;;5022054;28;20029;-80
2022/07/28 04:42:54;;;;;;;2.60;1.40;;;;;;;;;;5022290;28;20034;-79
2022/07/28 04:45:19;;;;;;;3.05;1.35;;;;;;;;;;5015052;28;20081;-79
2022/07/28 04:47:44;;;;;;;2.50;1.60;;;;;;;;;;5021447;28;20053;-79
2022/07/28 04:50:11;;;;;;;7.90;1.58;;;;;;;;;;5026411;28;20030;-80
2022/07/28 04:52:37;;;;;;;5.00;1.52;;;;;;;;;;5038134;28;20080;-79
2022/07/28 04:55:04;;;;;;;4.15;1.50;;;;;;;;;;5012103;28;20065;-80
2022/07/28 04:57:29;;;;;;;1.50;1.40;;;;;;;;;;5016339;28;20091;-80
2022/07/28 05:00:29;;;;;;;4.53;1.70;;;;;;;;;;5024213;28;20064;-80
2022/07/28 05:02:57;;;;;;;5.80;1.60;;;;;;;;;;5006203;28;20037;-80
2022/07/28 05:05:22;;;;;;;3.30;1.40;;;;;;;;;;5021250;28;20026;-80
2022/07/28 05:07:48;;;;;;;3.50;1.50;;;;;;;;;;5015127;28;20057;-80
2022/07/28 05:10:13;;;;;;;4.70;1.98;;;;;;;;;;5009783;28;20037;-80
2022/07/28 05:12:39;;;;;;;2.42;1.48;;;;;;;;;;5023660;28;20026;-80
2022/07/28 05:15:06;;;;;;;3.85;1.52;;;;;;;;;;5031051;28;20028;-80
2022/07/28 05:17:31;;;;;;;5.80;1.60;;;;;;;;;;5021069;28;20083;-80
2022/07/28 05:19:56;;;;;;;4.45;1.70;;;;;;;;;;5033295;28;20052;-81
2022/07/28 05:22:22;;;;;;;4.53;1.45;;;;;;;;;;5039060;28;20113;-81
2022/07/28 05:24:47;;;;;;;3.67;1.67;;;;;;;;;;5032413;28;20110;-80
2022/07/28 05:27:12;;;;;;;4.55;1.40;;;;;;;;;;5010287;28;20052;-80
2022/07/28 05:29:40;;;;;;;4.18;1.80;;;;;;;;;;5017801;28;20041;-80
2022/07/28 05:32:06;;;;;;;4.75;1.50;;;;;;;;;;5017037;28;20565;-80
2022/07/28 05:34:32;;;;;;;3.15;1.40;;;;;;;;;;5025338;28;20028;-80
2022/07/28 05:36:57;;;;;;;3.47;1.42;;;;;;;;;;5031712;28;20041;-80
2022/07/28 05:39:23;;;;;;;3.63;1.67;;;;;;;;;;5011101;28;20029;-80
2022/07/28 05:41:48;;;;;;;6.70;1.90;;;;;;;;;;5010930;28;20034;-80
2022/07/28 05:44:14;;;;;;;3.33;1.40;;;;;;;;;;5044870;28;20048;-80
2022/07/28 05:46:39;;;;;;;2.83;1.63;;;;;;;;;;5039295;28;20037;-80
2022/07/28 05:49:04;;;;;;;4.05;1.42;;;;;;;;;;5030554;28;20033;-80
2022/07/28 05:51:30;;;;;;;6.95;1.73;;;;;;;;;;5023145;28;20491;-80
2022/07/28 05:53:55;;;;;;;9.50;1.77;;;;;;;;;;5040344;28;20053;-80
2022/07/28 05:56:21;;;;;;;3.75;1.65;;;;;;;;;;5025079;28;20026;-80
2022/07/28 05:58:47;;;;;;;4.82;1.98;;;;;;;;;;5079216;22;20010;-82
2022/07/28 06:01:19;;;;;;;7.30;1.88;;;;;;;;;;5089717;28;20122;-80
2022/07/28 06:03:44;;;;;;;7.78;1.63;;;;;;;;;;5104341;28;20516;-79
2022/07/28 06:06:10;;;;;;;2.45;1.90;;;;;;;;;;5098458;28;20040;-80
2022/07/28 06:08:35;;;;;;;4.00;1.45;;;;;;;;;;5107316;28;20107;-81
2022/07/28 06:11:07;;;;;;;2.90;1.75;;;;;;;;;;5096053;28;20089;-81
2022/07/28 06:13:33;;;;;;;2.33;1.55;;;;;;;;;;5110929;28;20020;-83
2022/07/28 06:15:59;;;;;;;5.88;1.88;;;;;;;;;;5090850;28;20021;-80
2022/07/28 06:18:24;;;;;;;5.20;1.77;;;;;;;;;;5086289;28;20382;-81
2022/07/28 06:20:50;;;;;;;3.33;1.85;;;;;;;;;;5079251;28;20457;-80
2022/07/28 06:23:18;;;;;;;5.18;2.05;;;;;;;;;;5092657;28;20082;-81
2022/07/28 06:25:43;;;;;;;3.60;1.70;;;;;;;;;;5093598;28;20039;-81
2022/07/28 06:28:09;;;;;;;7.65;1.90;;;;;;;;;;5084865;28;20394;-81
2022/07/28 06:30:34;;;;;;;4.90;1.83;;;;;;;;;;5092008;28;20136;-80
2022/07/28 06:33:00;;;;;;;7.18;1.92;;;;;;;;;;5106521;28;20028;-81
2022/07/28 06:35:25;;;;;;;3.28;1.67;;;;;;;;;;5108583;28;20015;-80
2022/07/28 06:37:52;;;;;;;7.05;2.00;;;;;;;;;;5105304;28;20024;-82
2022/07/28 06:40:18;;;;;;;3.55;2.33;;;;;;;;;;5109680;28;20031;-81
2022/07/28 06:42:44;;;;;;;4.75;2.20;;;;;;;;;;5081494;28;20032;-83
2022/07/28 06:45:11;;;;;;;4.20;1.95;;;;;;;;;;5099045;28;20032;-83
2022/07/28 06:47:37;;;;;;;3.42;1.98;;;;;;;;;;5099445;28;20028;-83
2022/07/28 06:50:03;;;;;;;2.63;1.83;;;;;;;;;;5097235;28;20050;-85
2022/07/28 06:52:28;;;;;;;4.53;2.00;;;;;;;;;;5099431;28;20078;-82
2022/07/28 06:54:54;;;;;;;4.03;2.40;;;;;;;;;;5093387;28;20016;-82
2022/07/28 06:57:21;;;;;;;5.43;2.08;;;;;;;;;;5081862;28;20111;-82
2022/07/28 06:59:49;;;;;;;3.75;1.80;;;;;;;;;;5089390;28;20047;-82
2022/07/28 07:02:15;;;;;;;3.58;2.22;;;;;;;;;;5086972;28;20047;-83
2022/07/28 07:04:41;;;;;;;2.75;2.05;;;;;;;;;;5090307;28;20025;-83
2022/07/28 07:07:06;;;;;;;5.97;2.15;;;;;;;;;;5099299;28;20031;-84
2022/07/28 07:09:32;;;;;;;3.15;2.10;;;;;;;;;;5097329;28;20035;-84
2022/07/28 07:11:57;;;;;;;4.05;2.45;;;;;;;;;;5082175;28;20020;-84
2022/07/28 07:14:23;;;;;;;4.60;2.22;;;;;;;;;;5084463;28;20027;-83
2022/07/28 07:16:49;;;;;;;6.57;2.30;;;;;;;;;;5097433;28;20465;-83
2022/07/28 07:19:15;;;;;;;3.83;2.05;;;;;;;;;;5095248;28;20041;-84
2022/07/28 07:21:40;;;;;;;2.88;2.38;;;;;;;;;;5111501;28;20027;-84
2022/07/28 07:24:06;;;;;;;3.60;2.70;;;;;;;;;;5113044;28;20020;-81
2022/07/28 07:26:32;;;;;;;6.38;2.40;;;;;;;;;;5105382;28;20047;-82
2022/07/28 07:28:57;;;;;;;2.60;2.08;;;;;;;;;;5099970;28;20043;-83
2022/07/28 07:31:22;;;;;;;5.72;2.17;;;;;;;;;;5096204;28;20028;-82
2022/07/28 07:33:48;;;;;;;6.10;2.40;;;;;;;;;;5083452;28;20074;-82
2022/07/28 07:36:13;;;;;;;5.53;2.25;;;;;;;;;;5068882;28;20020;-83
2022/07/28 07:38:39;;;;;;;4.45;2.40;;;;;;;;;;5089678;28;20036;-83
2022/07/28 07:41:04;;;;;;;5.05;2.67;;;;;;;;;;5098195;28;20035;-81
2022/07/28 07:43:30;;;;;;;5.80;2.03;;;;;;;;;;5088235;28;20023;-84
2022/07/28 07:45:55;;;;;;;2.92;2.30;;;;;;;;;;5110417;28;20026;-83
2022/07/28 07:48:21;;;;;;;5.88;2.80;;;;;;;;;;5098953;28;20039;-82
2022/07/28 07:50:46;;;;;;;3.05;2.20;;;;;;;;;;5093060;28;20024;-81
2022/07/28 07:53:11;;;;;;;5.03;2.88;;;;;;;;;;5089989;28;20123;-83
2022/07/28 07:55:37;;;;;;;5.28;2.50;;;;;;;;;;5095603;28;20059;-83
2022/07/28 07:58:02;;;;;;;6.35;2.80;;;;;;;;;;5093072;28;20071;-85
2022/07/28 08:00:28;;;;;;;6.97;2.45;;;;;;;;;;5088684;28;20504;-83
2022/07/28 08:02:54;;;;;;;5.75;2.72;;;;;;;;;;5088830;28;20408;-82
2022/07/28 08:05:19;;;;;;;5.80;2.70;;;;;;;;;;5083235;28;20043;-83
2022/07/28 08:07:45;;;;;;;5.25;2.60;;;;;;;;;;5083533;28;20032;-82
2022/07/28 08:10:10;;;;;;;4.75;2.45;;;;;;;;;;5084787;28;20038;-82
2022/07/28 08:12:36;;;;;;;10.18;2.30;;;;;;;;;;5093624;28;20432;-83
2022/07/28 08:15:02;;;;;;;5.30;2.80;;;;;;;;;;5085489;28;20028;-83
2022/07/28 08:17:28;;;;;;;4.72;2.70;;;;;;;;;;5082093;28;20124;-83
2022/07/28 08:19:54;;;;;;;7.20;2.67;;;;;;;;;;5093304;28;20473;-83
2022/07/28 08:22:19;;;;;;;10.68;2.72;;;;;;;;;;5097428;28;20024;-83
2022/07/28 08:24:45;;;;;;;6.85;3.25;;;;;;;;;;5095253;28;20107;-83
2022/07/28 08:27:10;;;;;;;5.22;2.60;;;;;;;;;;5094969;28;20028;-83
2022/07/28 08:29:36;;;;;;;4.28;3.05;;;;;;;;;;5097233;28;20016;-83
2022/07/28 08:32:02;;;;;;;7.43;2.75;;;;;;;;;;5096013;28;20028;-83
2022/07/28 08:34:29;;;;;;;4.50;2.97;;;;;;;;;;5096634;28;20012;-83
2022/07/28 08:36:54;;;;;;;7.43;2.58;;;;;;;;;;5083487;28;20039;-83
2022/07/28 08:39:20;;;;;;;7.20;3.00;;;;;;;;;;5097829;28;20024;-83
2022/07/28 08:42:06;;;;;;;5.50;2.80;;;;;;;;;;5105293;28;20028;-84
2022/07/28 08:44:38;;;;;;;5.53;3.47;;;;;;;;;;5090826;28;20030;-83
2022/07/28 08:47:08;;;;;;;6.25;3.22;;;;;;;;;;5098896;28;20045;-83
2022/07/28 08:49:37;;;;;;;7.72;3.00;;;;;;;;;;5106557;28;20020;-83
2022/07/28 08:52:04;;;;;;;4.22;2.80;;;;;;;;;;5103246;28;20024;-83
2022/07/28 08:54:30;;;;;;;4.60;3.00;;;;;;;;;;5093812;28;20036;-83
2022/07/28 08:56:56;;;;;;;10.07;2.72;;;;;;;;;;5086984;28;20024;-82
2022/07/28 08:59:22;;;;;;;3.65;2.67;;;;;;;;;;5105595;28;20043;-83
2022/07/28 09:01:48;;;;;;;3.05;2.63;;;;;;;;;;5098819;28;20028;-83
2022/07/28 09:04:14;;;;;;;5.32;3.13;;;;;;;;;;5091448;28;20047;-83
2022/07/28 09:06:41;;;;;;;5.60;3.15;;;;;;;;;;5093600;28;20036;-83
2022/07/28 09:09:08;;;;;;;5.18;2.78;;;;;;;;;;5093443;28;20043;-83
2022/07/28 09:11:35;;;;;;;5.82;2.78;;;;;;;;;;5094819;28;20028;-83
2022/07/28 09:14:00;;;;;;;3.92;2.75;;;;;;;;;;5093066;28;20032;-83
2022/07/28 09:16:26;;;;;;;5.68;3.33;;;;;;;;;;5095326;28;20034;-83
2022/07/28 09:18:51;;;;;;;5.57;2.90;;;;;;;;;;5092705;28;20075;-83
2022/07/28 09:21:17;;;;;;;4.68;2.75;;;;;;;;;;5078819;28;20036;-83
2022/07/28 09:23:45;;;;;;;5.38;2.97;;;;;;;;;;5077535;28;20028;-82
2022/07/28 09:26:11;;;;;;;3.67;2.75;;;;;;;;;;5080203;28;20056;-83
2022/07/28 09:28:53;;;;;;;3.45;2.72;;;;;;;;;;5081045;28;20047;-83
2022/07/28 09:31:19;;;;;;;3.45;2.90;;;;;;;;;;5086455;28;20957;-83
2022/07/28 09:34:05;;;;;;;7.53;2.72;;;;;;;;;;5090937;28;20374;-83
2022/07/28 09:36:38;;;;;;;2.75;2.30;;;;;;;;;;5089307;28;20042;-83
2022/07/28 09:39:04;;;;;;;3.88;2.85;;;;;;;;;;5089257;28;20076;-83
2022/07/28 09:41:46;;;;;;;8.18;2.78;;;;;;;;;;5091364;28;20033;-83
2022/07/28 09:44:22;;;;;;;7.03;2.92;;;;;;;;;;5092387;28;20504;-84
2022/07/28 09:46:48;;;;;;;3.88;2.40;;;;;;;;;;5091769;28;20469;-83
2022/07/28 09:49:13;;;;;;;5.38;3.28;;;;;;;;;;5092729;28;20036;-83
2022/07/28 09:51:39;;;;;;;5.20;2.67;;;;;;;;;;5092318;28;20366;-83
2022/07/28 09:54:10;;;;;;;6.88;2.90;;;;;;;;;;5091135;28;20030;-84
2022/07/28 09:56:40;;;;;;;6.20;2.70;;;;;;;;;;5090992;28;20055;-84
2022/07/28 09:59:07;;;;;;;3.75;2.65;;;;;;;;;;5072156;28;20048;-83
2022/07/28 10:01:33;;;;;;;4.20;2.42;;;;;;;;;;5092407;28;20402;-84
2022/07/28 10:04:00;;;;;;;3.85;2.65;;;;;;;;;;5091654;28;20080;-83
2022/07/28 10:06:27;;;;;;;4.72;2.67;;;;;;;;;;5093065;28;20489;-82
2022/07/28 10:08:55;;;;;;;3.92;2.50;;;;;;;;;;5090536;28;20062;-84
2022/07/28 10:11:23;;;;;;;4.35;2.80;;;;;;;;;;5075444;28;20028;-82
2022/07/28 10:14:03;;;;;;;3.33;2.40;;;;;;;;;;5093489;28;20024;-82
2022/07/28 10:16:41;;;;;;;4.95;2.90;;;;;;;;;;5092747;28;20026;-82
2022/07/28 10:19:06;;;;;;;4.15;2.75;;;;;;;;;;5090938;28;20080;-83
2022/07/28 10:21:42;;;;;;;3.88;2.80;;;;;;;;;;5085368;28;20118;-83
2022/07/28 10:24:11;;;;;;;4.20;2.70;;;;;;;;;;5082337;28;20050;-83
2022/07/28 10:26:41;;;;;;;5.55;3.00;;;;;;;;;;5082586;28;20036;-83
2022/07/28 10:29:12;;;;;;;5.18;2.60;;;;;;;;;;5084227;28;20051;-82
2022/07/28 10:31:40;;;;;;;3.05;2.60;;;;;;;;;;5073216;28;20035;-81
2022/07/28 10:34:08;;;;;;;5.45;3.00;;;;;;;;;;5083185;28;20064;-81
2022/07/28 10:36:34;;;;;;;3.53;2.50;;;;;;;;;;5069048;28;20028;-81
2022/07/28 10:39:11;;;;;;;4.20;2.83;;;;;;;;;;5081187;28;20035;-81
2022/07/28 10:41:39;;;;;;;3.55;2.38;;;;;;;;;;5080865;28;20027;-84
2022/07/28 10:44:06;;;;;;;3.58;2.85;;;;;;;;;;5068976;28;20029;-84
2022/07/28 10:46:32;;;;;;;4.15;2.65;;;;;;;;;;5083884;28;20054;-83
2022/07/28 10:48:59;;;;;;;3.00;2.72;;;;;;;;;;5082314;28;20036;-82
2022/07/28 10:51:26;;;;;;;6.65;2.80;;;;;;;;;;5079308;28;20036;-82
2022/07/28 10:53:57;;;;;;;8.02;2.90;;;;;;;;;;5055523;28;20050;-84
2022/07/28 10:56:39;;;;;;;3.72;2.70;;;;;;;;;;5053512;28;20039;-82
2022/07/28 10:59:18;;;;;;;4.32;3.00;;;;;;;;;;5052414;28;20415;-82
2022/07/28 11:01:43;;;;;;;3.83;2.90;;;;;;;;;;5061552;28;20043;-82
2022/07/28 11:04:51;;;;;;;6.03;3.20;;;;;;;;;;5089311;28;20028;-84
2022/07/28 11:07:17;;;;;;;3.30;2.58;;;;;;;;;;5083866;28;20024;-83
2022/07/28 11:09:46;;;;;;;6.20;2.85;;;;;;;;;;5083952;28;20028;-83
2022/07/28 11:12:14;;;;;;;4.05;2.95;;;;;;;;;;5085506;28;20028;-84
2022/07/28 11:14:40;;;;;;;6.20;2.72;;;;;;;;;;5066379;28;20150;-82
2022/07/28 11:17:05;;;;;;;4.32;2.58;;;;;;;;;;5047556;28;20033;-82
2022/07/28 11:19:43;;;;;;;3.22;2.55;;;;;;;;;;5045866;28;20043;-86
2022/07/28 11:22:20;;;;;;;4.28;2.70;;;;;;;;;;5053833;28;20435;-81
2022/07/28 11:25:04;;;;;;;4.32;2.83;;;;;;;;;;5057723;28;20608;-82
2022/07/28 11:27:42;;;;;;;6.43;2.47;;;;;;;;;;5059724;28;20047;-83
2022/07/28 11:30:35;;;;;;;3.30;2.47;;;;;;;;;;5043055;28;20039;-82
2022/07/28 11:33:06;;;;;;;4.30;2.58;;;;;;;;;;5045853;28;20059;-82
2022/07/28 11:35:53;;;;;;;2.95;2.47;;;;;;;;;;5053183;28;20036;-83
2022/07/28 11:38:18;;;;;;;3.72;2.40;;;;;;;;;;5063501;28;20041;-83
2022/07/28 11:40:46;;;;;;;3.20;2.42;;;;;;;;;;5073259;28;20028;-85
2022/07/28 11:43:25;;;;;;;3.47;2.58;;;;;;;;;;5092455;28;20024;-83
2022/07/28 11:46:00;;;;;;;3.50;2.30;;;;;;;;;;5090787;28;20039;-83
2022/07/28 11:48:26;;;;;;;3.85;2.60;;;;;;;;;;5066660;28;20509;-86
2022/07/28 11:51:03;;;;;;;5.38;2.75;;;;;;;;;;5074303;28;20039;-84
2022/07/28 11:53:47;;;;;;;3.65;2.47;;;;;;;;;;5059342;28;20028;-83
2022/07/28 11:56:23;;;;;;;4.05;2.60;;;;;;;;;;5073853;28;20435;-83
2022/07/28 11:58:59;;;;;;;4.47;2.42;;;;;;;;;;5089776;28;20038;-82
2022/07/28 12:01:25;;;;;;;5.32;2.83;;;;;;;;;;5090738;23;20048;-84
2022/07/28 12:03:53;;;;;;;8.32;3.08;;;;;;;;;;5034038;28;20032;-81
2022/07/28 12:06:22;;;;;;;4.65;2.83;;;;;;;;;;5048022;28;20032;-81
2022/07/28 12:08:52;;;;;;;5.25;2.70;;;;;;;;;;5034734;28;20068;-80
2022/07/28 12:11:19;;;;;;;3.05;2.50;;;;;;;;;;5034269;28;20021;-82
2022/07/28 12:13:45;;;;;;;5.10;2.90;;;;;;;;;;5018174;28;20129;-82
2022/07/28 12:16:11;;;;;;;4.47;2.47;;;;;;;;;;5036989;28;20075;-81
2022/07/28 12:18:37;;;;;;;5.57;2.67;;;;;;;;;;5040078;28;20068;-83
2022/07/28 12:21:02;;;;;;;2.90;2.47;;;;;;;;;;5039121;28;20112;-81
2022/07/28 12:23:33;;;;;;;4.63;2.80;;;;;;;;;;5038947;28;20024;-81
2022/07/28 12:26:03;;;;;;;5.68;2.50;;;;;;;;;;5041075;28;21340;-82
2022/07/28 12:28:31;;;;;;;4.03;2.50;;;;;;;;;;5041361;28;20040;-82
2022/07/28 12:31:17;;;;;;;5.97;2.50;;;;;;;;;;5044960;28;20032;-82
2022/07/28 12:33:42;;;;;;;5.03;2.50;;;;;;;;;;5025078;28;20048;-82
2022/07/28 12:36:08;;;;;;;2.78;2.30;;;;;;;;;;5054608;28;20035;-82
2022/07/28 12:38:34;;;;;;;5.85;2.40;;;;;;;;;;5062742;28;20025;-82
2022/07/28 12:40:59;;;;;;;3.72;2.65;;;;;;;;;;5064703;28;20467;-82
2022/07/28 12:43:28;;;;;;;4.57;2.80;;;;;;;;;;5056568;28;20522;-82
2022/07/28 12:45:54;;;;;;;3.78;2.58;;;;;;;;;;5028175;28;20041;-82
2022/07/28 12:48:21;;;;;;;3.80;2.70;;;;;;;;;;5034813;28;20029;-82
2022/07/28 12:50:48;;;;;;;4.90;2.85;;;;;;;;;;5046964;28;20033;-83
2022/07/28 12:53:15;;;;;;;9.32;2.67;;;;;;;;;;5048239;28;20056;-83
2022/07/28 12:55:44;;;;;;;5.03;2.85;;;;;;;;;;5049850;28;20027;-84
2022/07/28 12:58:24;;;;;;;2.63;2.30;;;;;;;;;;5065119;28;20542;-83
2022/07/28 13:00:50;;;;;;;5.03;3.22;;;;;;;;;;5063519;28;20036;-83
2022/07/28 13:03:21;;;;;;;2.90;2.20;;;;;;;;;;5064449;28;20377;-83
2022/07/28 13:06:02;;;;;;;3.55;2.70;;;;;;;;;;5045614;28;20510;-84
2022/07/28 13:08:42;;;;;;;4.32;2.50;;;;;;;;;;5046641;28;20082;-83
2022/07/28 13:11:10;;;;;;;3.05;2.28;;;;;;;;;;5032299;28;20078;-83
2022/07/28 13:13:49;;;;;;;2.55;2.22;;;;;;;;;;5049751;28;20682;-86
2022/07/28 13:16:19;;;;;;;2.58;2.38;;;;;;;;;;5054246;28;20037;-84
2022/07/28 13:18:49;;;;;;;3.30;2.20;;;;;;;;;;5049325;28;20033;-84
2022/07/28 13:21:15;;;;;;;3.80;2.70;;;;;;;;;;5048877;28;20146;-85
2022/07/28 13:24:08;;;;;;;3.00;2.20;;;;;;;;;;5068245;28;20490;-84
2022/07/28 13:26:35;;;;;;;3.03;2.28;;;;;;;;;;5065399;28;20056;-83
2022/07/28 13:29:04;;;;;;;3.35;2.20;;;;;;;;;;5067654;28;20029;-85
2022/07/28 13:31:31;;;;;;;4.15;2.42;;;;;;;;;;5047459;28;20036;-84
2022/07/28 13:33:57;;;;;;;2.92;2.47;;;;;;;;;;5064261;28;20826;-85
2022/07/28 13:36:22;;;;;;;3.15;2.17;;;;;;;;;;5066317;28;20505;-85
2022/07/28 13:38:48;;;;;;;9.70;2.47;;;;;;;;;;5068269;28;20496;-85
2022/07/28 13:41:13;;;;;;;3.97;2.30;;;;;;;;;;5064657;28;20029;-85
2022/07/28 13:43:39;;;;;;;4.22;2.10;;;;;;;;;;5073102;28;20037;-85
2022/07/28 13:46:04;;;;;;;4.90;2.13;;;;;;;;;;5067321;28;20579;-83
2022/07/28 13:48:31;;;;;;;2.78;2.17;;;;;;;;;;5063686;28;20107;-83
2022/07/28 13:50:57;;;;;;;3.20;2.22;;;;;;;;;;5066517;28;20034;-86
2022/07/28 13:53:35;;;;;;;3.10;2.30;;;;;;;;;;5066409;28;20155;-84
2022/07/28 13:56:01;;;;;;;2.30;2.10;;;;;;;;;;5041110;28;20059;-84
2022/07/28 13:58:26;;;;;;;2.85;1.92;;;;;;;;;;5064292;28;20403;-84
2022/07/28 14:00:51;;;;;;;3.15;2.58;;;;;;;;;;5062645;28;20112;-84
2022/07/28 14:03:23;;;;;;;2.92;2.17;;;;;;;;;;5066695;28;20021;-84
2022/07/28 14:05:49;;;;;;;3.95;2.58;;;;;;;;;;5035976;28;20570;-84
2022/07/28 14:08:18;;;;;;;3.25;2.42;;;;;;;;;;5038828;28;20053;-83
2022/07/28 14:10:49;;;;;;;4.60;2.05;;;;;;;;;;5057518;28;20028;-85
2022/07/28 14:13:17;;;;;;;;;;;;;;;;;;5048599;28;20111;-84
2022/07/28 14:15:44;;;;;;;4.07;2.50;;;;;;;;;;5041475;28;19913;-84
2022/07/28 14:18:10;;;;;;;6.90;2.72;;;;;;;;;;5056914;28;20025;-83
2022/07/28 14:20:35;;;;;;;4.97;2.50;;;;;;;;;;5043751;28;20036;-84
2022/07/28 14:23:01;;;;;;;3.75;2.30;;;;;;;;;;5069162;28;20029;-84
2022/07/28 14:25:26;;;;;;;5.57;2.45;;;;;;;;;;5065167;28;20025;-84
2022/07/28 14:27:53;;;;;;;4.07;2.10;;;;;;;;;;5054761;28;20025;-84
2022/07/28 14:30:24;;;;;;;3.05;2.30;;;;;;;;;;5045061;28;20028;-84
2022/07/28 14:32:50;;;;;;;3.38;2.50;;;;;;;;;;5034707;28;20033;-85
2022/07/28 14:35:15;;;;;;;5.95;2.35;;;;;;;;;;5041160;28;20443;-87
2022/07/28 14:37:41;;;;;;;3.05;2.30;;;;;;;;;;5063503;28;20064;-82
2022/07/28 14:40:07;;;;;;;3.25;2.10;;;;;;;;;;5061550;28;20029;-81
2022/07/28 14:42:32;;;;;;;3.13;2.28;;;;;;;;;;5069001;28;20116;-82
2022/07/28 14:44:58;;;;;;;2.85;2.20;;;;;;;;;;5070026;28;20055;-82
2022/07/28 14:47:27;;;;;;;5.18;2.03;;;;;;;;;;5068987;28;20032;-80
2022/07/28 14:49:52;;;;;;;3.70;2.38;;;;;;;;;;5066172;28;20029;-81
2022/07/28 14:52:18;;;;;;;3.38;2.55;;;;;;;;;;5065604;28;20035;-83
2022/07/28 14:54:46;;;;;;;5.18;2.30;;;;;;;;;;5047874;28;20075;-80
2022/07/28 14:57:13;;;;;;;2.58;2.25;;;;;;;;;;5033165;28;20021;-81